sensor_id;sensor_type;location;lat;lon;timestamp;P1;durP1;ratioP1;P2;durP2;ratioP2
64459;SDS011;50828;53.756;21.140;2022-07-22T00:01:49;7.80;;;5.80;;
64459;SDS011;50828;53.756;21.140;2022-07-22T00:06:57;9.10;;;6.70;;
64459;SDS011;50828;53.756;21.140;2022-07-22T00:12:06;7.80;;;6.20;;
64459;SDS011;50828;53.756;21.140;2022-07-22T00:17:14;9.50;;;6.10;;
64459;SDS011;50828;53.756;21.140;2022-07-22T00:22:22;8.20;;;5.80;;
64459;SDS011;50828;53.756;21.140;2022-07-22T00:27:29;8.60;;;6.50;;
64459;SDS011;50828;53.756;21.140;2022-07-22T00:32:37;8.20;;;5.80;;
64459;SDS011;50828;53.756;21.140;2022-07-22T00:37:45;7.20;;;5.60;;
64459;SDS011;50828;53.756;21.140;2022-07-22T00:42:53;7.40;;;5.80;;
64459;SDS011;50828;53.756;21.140;2022-07-22T00:48:01;8.20;;;6.10;;
64459;SDS011;50828;53.756;21.140;2022-07-22T00:53:09;8.70;;;6.30;;
64459;SDS011;50828;53.756;21.140;2022-07-22T00:58:17;8.90;;;6.10;;
64459;SDS011;50828;53.756;21.140;2022-07-22T01:03:26;7.10;;;6.40;;
64459;SDS011;50828;53.756;21.140;2022-07-22T01:08:34;6.50;;;5.80;;
64459;SDS011;50828;53.756;21.140;2022-07-22T01:13:43;7.70;;;6.20;;
64459;SDS011;50828;53.756;21.140;2022-07-22T01:18:52;7.00;;;6.10;;
64459;SDS011;50828;53.756;21.140;2022-07-22T01:24:00;7.10;;;5.90;;
64459;SDS011;50828;53.756;21.140;2022-07-22T01:29:09;10.70;;;6.60;;
64459;SDS011;50828;53.756;21.140;2022-07-22T01:34:17;8.50;;;6.00;;
64459;SDS011;50828;53.756;21.140;2022-07-22T01:39:25;11.40;;;6.30;;
64459;SDS011;50828;53.756;21.140;2022-07-22T01:44:33;7.50;;;6.30;;
64459;SDS011;50828;53.756;21.140;2022-07-22T01:49:40;11.60;;;7.00;;
64459;SDS011;50828;53.756;21.140;2022-07-22T01:54:48;8.10;;;6.50;;
64459;SDS011;50828;53.756;21.140;2022-07-22T01:59:56;10.60;;;7.30;;
64459;SDS011;50828;53.756;21.140;2022-07-22T02:05:06;9.10;;;7.00;;
64459;SDS011;50828;53.756;21.140;2022-07-22T02:10:15;8.40;;;7.40;;
64459;SDS011;50828;53.756;21.140;2022-07-22T02:15:23;8.80;;;7.20;;
64459;SDS011;50828;53.756;21.140;2022-07-22T02:20:33;11.90;;;7.50;;
64459;SDS011;50828;53.756;21.140;2022-07-22T02:25:41;11.10;;;7.70;;
64459;SDS011;50828;53.756;21.140;2022-07-22T02:30:49;8.10;;;7.30;;
64459;SDS011;50828;53.756;21.140;2022-07-22T02:35:57;8.80;;;7.50;;
64459;SDS011;50828;53.756;21.140;2022-07-22T02:41:08;11.40;;;7.90;;
64459;SDS011;50828;53.756;21.140;2022-07-22T02:46:23;7.90;;;7.00;;
64459;SDS011;50828;53.756;21.140;2022-07-22T02:51:34;9.60;;;7.30;;
64459;SDS011;50828;53.756;21.140;2022-07-22T02:56:42;9.60;;;8.00;;
64459;SDS011;50828;53.756;21.140;2022-07-22T03:01:50;9.70;;;7.40;;
64459;SDS011;50828;53.756;21.140;2022-07-22T03:06:58;12.40;;;7.60;;
64459;SDS011;50828;53.756;21.140;2022-07-22T03:12:07;12.70;;;7.60;;
64459;SDS011;50828;53.756;21.140;2022-07-22T03:17:15;11.00;;;7.70;;
64459;SDS011;50828;53.756;21.140;2022-07-22T03:22:23;10.80;;;7.70;;
64459;SDS011;50828;53.756;21.140;2022-07-22T03:27:31;11.60;;;7.90;;
64459;SDS011;50828;53.756;21.140;2022-07-22T03:32:38;10.70;;;8.10;;
64459;SDS011;50828;53.756;21.140;2022-07-22T03:37:50;9.60;;;7.40;;
64459;SDS011;50828;53.756;21.140;2022-07-22T03:42:58;9.70;;;7.60;;
64459;SDS011;50828;53.756;21.140;2022-07-22T03:48:07;9.60;;;7.60;;
64459;SDS011;50828;53.756;21.140;2022-07-22T03:53:15;11.00;;;7.00;;
64459;SDS011;50828;53.756;21.140;2022-07-22T03:58:24;7.90;;;6.80;;
64459;SDS011;50828;53.756;21.140;2022-07-22T04:03:32;10.30;;;6.80;;
64459;SDS011;50828;53.756;21.140;2022-07-22T04:08:45;7.70;;;5.70;;
64459;SDS011;50828;53.756;21.140;2022-07-22T04:13:53;10.30;;;6.60;;
64459;SDS011;50828;53.756;21.140;2022-07-22T04:19:02;9.60;;;6.10;;
64459;SDS011;50828;53.756;21.140;2022-07-22T04:24:28;8.60;;;6.70;;
64459;SDS011;50828;53.756;21.140;2022-07-22T04:29:36;7.70;;;6.40;;
64459;SDS011;50828;53.756;21.140;2022-07-22T04:34:45;8.40;;;7.00;;
64459;SDS011;50828;53.756;21.140;2022-07-22T04:39:52;10.10;;;6.70;;
64459;SDS011;50828;53.756;21.140;2022-07-22T04:45:00;9.50;;;6.70;;
64459;SDS011;50828;53.756;21.140;2022-07-22T04:50:09;8.80;;;6.50;;
64459;SDS011;50828;53.756;21.140;2022-07-22T04:55:18;8.50;;;6.40;;
64459;SDS011;50828;53.756;21.140;2022-07-22T05:00:26;9.60;;;6.60;;
64459;SDS011;50828;53.756;21.140;2022-07-22T05:05:33;10.40;;;7.20;;
64459;SDS011;50828;53.756;21.140;2022-07-22T05:10:42;8.10;;;6.70;;
64459;SDS011;50828;53.756;21.140;2022-07-22T05:15:50;9.00;;;7.20;;
64459;SDS011;50828;53.756;21.140;2022-07-22T05:20:58;7.80;;;6.60;;
64459;SDS011;50828;53.756;21.140;2022-07-22T05:26:06;7.60;;;6.10;;
64459;SDS011;50828;53.756;21.140;2022-07-22T05:31:13;7.80;;;5.40;;
64459;SDS011;50828;53.756;21.140;2022-07-22T05:36:21;7.10;;;5.60;;
64459;SDS011;50828;53.756;21.140;2022-07-22T05:41:28;7.90;;;5.20;;
64459;SDS011;50828;53.756;21.140;2022-07-22T05:46:37;6.10;;;4.30;;
64459;SDS011;50828;53.756;21.140;2022-07-22T05:51:46;6.10;;;4.20;;
64459;SDS011;50828;53.756;21.140;2022-07-22T05:56:54;7.30;;;4.40;;
64459;SDS011;50828;53.756;21.140;2022-07-22T06:02:00;5.90;;;3.50;;
64459;SDS011;50828;53.756;21.140;2022-07-22T06:07:17;5.40;;;3.00;;
64459;SDS011;50828;53.756;21.140;2022-07-22T06:12:29;5.80;;;4.00;;
64459;SDS011;50828;53.756;21.140;2022-07-22T06:17:38;7.00;;;3.90;;
64459;SDS011;50828;53.756;21.140;2022-07-22T06:22:46;10.80;;;4.40;;
64459;SDS011;50828;53.756;21.140;2022-07-22T06:27:54;7.10;;;4.20;;
64459;SDS011;50828;53.756;21.140;2022-07-22T06:33:01;8.50;;;4.30;;
64459;SDS011;50828;53.756;21.140;2022-07-22T06:38:09;6.20;;;3.90;;
64459;SDS011;50828;53.756;21.140;2022-07-22T06:43:59;6.80;;;3.80;;
64459;SDS011;50828;53.756;21.140;2022-07-22T06:49:23;6.80;;;4.10;;
64459;SDS011;50828;53.756;21.140;2022-07-22T06:54:31;5.30;;;3.90;;
64459;SDS011;50828;53.756;21.140;2022-07-22T06:59:39;5.70;;;3.90;;
64459;SDS011;50828;53.756;21.140;2022-07-22T07:04:47;7.20;;;3.70;;
64459;SDS011;50828;53.756;21.140;2022-07-22T07:09:55;5.70;;;3.20;;
64459;SDS011;50828;53.756;21.140;2022-07-22T07:15:24;5.40;;;3.30;;
64459;SDS011;50828;53.756;21.140;2022-07-22T07:20:44;8.10;;;3.50;;
64459;SDS011;50828;53.756;21.140;2022-07-22T07:25:52;5.70;;;3.30;;
64459;SDS011;50828;53.756;21.140;2022-07-22T07:31:00;6.60;;;3.10;;
64459;SDS011;50828;53.756;21.140;2022-07-22T07:36:09;6.40;;;3.00;;
64459;SDS011;50828;53.756;21.140;2022-07-22T07:41:20;9.10;;;3.40;;
64459;SDS011;50828;53.756;21.140;2022-07-22T07:46:28;5.60;;;3.20;;
64459;SDS011;50828;53.756;21.140;2022-07-22T07:51:36;5.70;;;3.00;;
64459;SDS011;50828;53.756;21.140;2022-07-22T07:56:44;7.60;;;3.00;;
64459;SDS011;50828;53.756;21.140;2022-07-22T08:01:54;6.20;;;3.00;;
64459;SDS011;50828;53.756;21.140;2022-07-22T08:07:05;8.30;;;3.50;;
64459;SDS011;50828;53.756;21.140;2022-07-22T08:12:17;6.50;;;3.30;;
64459;SDS011;50828;53.756;21.140;2022-07-22T08:17:37;11.40;;;3.60;;
64459;SDS011;50828;53.756;21.140;2022-07-22T08:22:45;10.20;;;3.50;;
64459;SDS011;50828;53.756;21.140;2022-07-22T08:27:54;5.10;;;2.90;;
64459;SDS011;50828;53.756;21.140;2022-07-22T08:33:02;5.20;;;2.90;;
64459;SDS011;50828;53.756;21.140;2022-07-22T08:38:09;7.40;;;2.90;;
64459;SDS011;50828;53.756;21.140;2022-07-22T08:43:17;6.50;;;3.00;;
64459;SDS011;50828;53.756;21.140;2022-07-22T08:48:25;5.60;;;2.80;;
64459;SDS011;50828;53.756;21.140;2022-07-22T08:53:51;7.10;;;3.30;;
64459;SDS011;50828;53.756;21.140;2022-07-22T08:58:59;4.90;;;3.00;;
64459;SDS011;50828;53.756;21.140;2022-07-22T09:04:06;9.00;;;3.10;;
64459;SDS011;50828;53.756;21.140;2022-07-22T09:09:14;5.80;;;3.10;;
64459;SDS011;50828;53.756;21.140;2022-07-22T09:14:25;8.30;;;3.40;;
64459;SDS011;50828;53.756;21.140;2022-07-22T09:20:14;5.50;;;3.30;;
64459;SDS011;50828;53.756;21.140;2022-07-22T09:26:06;8.00;;;3.50;;
64459;SDS011;50828;53.756;21.140;2022-07-22T09:31:35;6.90;;;3.50;;
64459;SDS011;50828;53.756;21.140;2022-07-22T09:37:02;7.20;;;3.40;;
64459;SDS011;50828;53.756;21.140;2022-07-22T09:42:11;9.20;;;3.60;;
64459;SDS011;50828;53.756;21.140;2022-07-22T09:47:28;7.80;;;3.90;;
64459;SDS011;50828;53.756;21.140;2022-07-22T09:53:01;6.80;;;3.60;;
64459;SDS011;50828;53.756;21.140;2022-07-22T09:58:13;5.30;;;3.30;;
64459;SDS011;50828;53.756;21.140;2022-07-22T10:03:23;8.80;;;3.00;;
64459;SDS011;50828;53.756;21.140;2022-07-22T10:08:36;6.30;;;3.20;;
64459;SDS011;50828;53.756;21.140;2022-07-22T10:13:44;5.90;;;3.90;;
64459;SDS011;50828;53.756;21.140;2022-07-22T10:18:52;4.50;;;3.60;;
64459;SDS011;50828;53.756;21.140;2022-07-22T10:24:09;6.10;;;3.80;;
64459;SDS011;50828;53.756;21.140;2022-07-22T10:29:29;5.30;;;4.10;;
64459;SDS011;50828;53.756;21.140;2022-07-22T10:45:19;7.40;;;4.00;;
64459;SDS011;50828;53.756;21.140;2022-07-22T10:50:42;8.10;;;4.10;;
64459;SDS011;50828;53.756;21.140;2022-07-22T10:56:02;10.50;;;4.80;;
64459;SDS011;50828;53.756;21.140;2022-07-22T11:01:14;7.40;;;4.70;;
64459;SDS011;50828;53.756;21.140;2022-07-22T11:11:44;8.10;;;4.50;;
64459;SDS011;50828;53.756;21.140;2022-07-22T11:16:54;6.80;;;4.20;;
64459;SDS011;50828;53.756;21.140;2022-07-22T11:27:13;6.60;;;4.30;;
64459;SDS011;50828;53.756;21.140;2022-07-22T11:32:23;7.30;;;4.60;;
64459;SDS011;50828;53.756;21.140;2022-07-22T11:37:36;7.50;;;4.10;;
64459;SDS011;50828;53.756;21.140;2022-07-22T11:42:44;6.40;;;4.50;;
64459;SDS011;50828;53.756;21.140;2022-07-22T11:48:09;7.00;;;4.60;;
64459;SDS011;50828;53.756;21.140;2022-07-22T11:53:19;7.60;;;4.50;;
64459;SDS011;50828;53.756;21.140;2022-07-22T11:58:40;6.90;;;4.20;;
64459;SDS011;50828;53.756;21.140;2022-07-22T12:03:49;6.20;;;4.50;;
64459;SDS011;50828;53.756;21.140;2022-07-22T12:09:04;7.50;;;4.80;;
64459;SDS011;50828;53.756;21.140;2022-07-22T12:14:14;7.50;;;5.20;;
64459;SDS011;50828;53.756;21.140;2022-07-22T12:19:23;7.00;;;5.30;;
64459;SDS011;50828;53.756;21.140;2022-07-22T12:24:34;8.00;;;5.00;;
64459;SDS011;50828;53.756;21.140;2022-07-22T12:29:44;8.50;;;5.40;;
64459;SDS011;50828;53.756;21.140;2022-07-22T12:34:57;10.80;;;5.90;;
64459;SDS011;50828;53.756;21.140;2022-07-22T12:40:07;6.20;;;5.30;;
64459;SDS011;50828;53.756;21.140;2022-07-22T12:45:20;9.10;;;5.20;;
64459;SDS011;50828;53.756;21.140;2022-07-22T12:50:29;10.00;;;5.60;;
64459;SDS011;50828;53.756;21.140;2022-07-22T12:55:40;11.60;;;6.00;;
64459;SDS011;50828;53.756;21.140;2022-07-22T13:00:51;8.10;;;6.10;;
64459;SDS011;50828;53.756;21.140;2022-07-22T13:06:02;11.70;;;6.60;;
64459;SDS011;50828;53.756;21.140;2022-07-22T13:11:17;8.60;;;6.00;;
64459;SDS011;50828;53.756;21.140;2022-07-22T13:16:24;8.50;;;5.70;;
64459;SDS011;50828;53.756;21.140;2022-07-22T13:21:33;7.10;;;5.70;;
64459;SDS011;50828;53.756;21.140;2022-07-22T13:26:40;8.10;;;6.40;;
64459;SDS011;50828;53.756;21.140;2022-07-22T13:31:51;8.20;;;6.20;;
64459;SDS011;50828;53.756;21.140;2022-07-22T13:37:20;10.50;;;7.00;;
64459;SDS011;50828;53.756;21.140;2022-07-22T13:42:29;9.50;;;7.50;;
64459;SDS011;50828;53.756;21.140;2022-07-22T13:47:37;9.80;;;7.40;;
64459;SDS011;50828;53.756;21.140;2022-07-22T13:52:47;11.70;;;6.90;;
64459;SDS011;50828;53.756;21.140;2022-07-22T13:57:55;9.70;;;7.00;;
64459;SDS011;50828;53.756;21.140;2022-07-22T14:03:03;11.30;;;7.20;;
64459;SDS011;50828;53.756;21.140;2022-07-22T14:08:14;8.70;;;6.50;;
64459;SDS011;50828;53.756;21.140;2022-07-22T14:13:23;11.40;;;6.50;;
64459;SDS011;50828;53.756;21.140;2022-07-22T14:18:31;9.50;;;6.90;;
64459;SDS011;50828;53.756;21.140;2022-07-22T14:23:41;8.20;;;6.40;;
64459;SDS011;50828;53.756;21.140;2022-07-22T14:28:50;8.00;;;6.50;;
64459;SDS011;50828;53.756;21.140;2022-07-22T14:33:58;9.30;;;6.10;;
64459;SDS011;50828;53.756;21.140;2022-07-22T14:39:07;8.40;;;5.60;;
64459;SDS011;50828;53.756;21.140;2022-07-22T14:44:15;9.10;;;5.20;;
64459;SDS011;50828;53.756;21.140;2022-07-22T14:49:23;7.40;;;5.30;;
64459;SDS011;50828;53.756;21.140;2022-07-22T14:54:31;7.60;;;4.80;;
64459;SDS011;50828;53.756;21.140;2022-07-22T14:59:39;7.00;;;4.90;;
64459;SDS011;50828;53.756;21.140;2022-07-22T15:04:47;6.50;;;4.80;;
64459;SDS011;50828;53.756;21.140;2022-07-22T15:09:56;7.00;;;4.60;;
64459;SDS011;50828;53.756;21.140;2022-07-22T15:15:04;7.00;;;4.80;;
64459;SDS011;50828;53.756;21.140;2022-07-22T15:20:13;6.50;;;5.00;;
64459;SDS011;50828;53.756;21.140;2022-07-22T15:25:22;6.70;;;5.20;;
64459;SDS011;50828;53.756;21.140;2022-07-22T15:30:30;6.60;;;4.40;;
64459;SDS011;50828;53.756;21.140;2022-07-22T15:35:39;7.10;;;4.80;;
64459;SDS011;50828;53.756;21.140;2022-07-22T15:40:48;7.50;;;5.00;;
64459;SDS011;50828;53.756;21.140;2022-07-22T15:45:58;6.60;;;4.70;;
64459;SDS011;50828;53.756;21.140;2022-07-22T15:51:08;6.80;;;4.90;;
64459;SDS011;50828;53.756;21.140;2022-07-22T15:56:16;7.70;;;5.10;;
64459;SDS011;50828;53.756;21.140;2022-07-22T16:01:25;6.30;;;4.30;;
64459;SDS011;50828;53.756;21.140;2022-07-22T16:06:33;5.70;;;4.30;;
64459;SDS011;50828;53.756;21.140;2022-07-22T16:11:41;5.80;;;4.70;;
64459;SDS011;50828;53.756;21.140;2022-07-22T16:16:50;10.60;;;9.50;;
64459;SDS011;50828;53.756;21.140;2022-07-22T16:21:59;8.70;;;6.70;;
64459;SDS011;50828;53.756;21.140;2022-07-22T16:27:08;6.60;;;5.60;;
64459;SDS011;50828;53.756;21.140;2022-07-22T16:32:16;7.20;;;5.00;;
64459;SDS011;50828;53.756;21.140;2022-07-22T16:37:25;5.80;;;5.00;;
64459;SDS011;50828;53.756;21.140;2022-07-22T16:42:45;6.60;;;5.00;;
64459;SDS011;50828;53.756;21.140;2022-07-22T16:48:48;7.40;;;4.80;;
64459;SDS011;50828;53.756;21.140;2022-07-22T16:53:56;7.10;;;5.20;;
64459;SDS011;50828;53.756;21.140;2022-07-22T16:59:04;6.30;;;5.00;;
64459;SDS011;50828;53.756;21.140;2022-07-22T17:04:13;7.30;;;4.80;;
64459;SDS011;50828;53.756;21.140;2022-07-22T17:09:21;9.80;;;5.00;;
64459;SDS011;50828;53.756;21.140;2022-07-22T17:14:30;6.40;;;4.90;;
64459;SDS011;50828;53.756;21.140;2022-07-22T17:19:39;7.50;;;4.90;;
64459;SDS011;50828;53.756;21.140;2022-07-22T17:24:47;7.50;;;4.70;;
64459;SDS011;50828;53.756;21.140;2022-07-22T17:29:55;7.20;;;5.10;;
64459;SDS011;50828;53.756;21.140;2022-07-22T17:35:04;7.10;;;5.10;;
64459;SDS011;50828;53.756;21.140;2022-07-22T17:40:13;8.60;;;5.30;;
64459;SDS011;50828;53.756;21.140;2022-07-22T17:45:22;8.10;;;5.20;;
64459;SDS011;50828;53.756;21.140;2022-07-22T17:50:30;7.10;;;5.10;;
64459;SDS011;50828;53.756;21.140;2022-07-22T17:55:43;6.60;;;5.00;;
64459;SDS011;50828;53.756;21.140;2022-07-22T18:01:09;7.30;;;4.80;;
64459;SDS011;50828;53.756;21.140;2022-07-22T18:06:17;7.90;;;4.80;;
64459;SDS011;50828;53.756;21.140;2022-07-22T18:11:26;6.20;;;4.90;;
64459;SDS011;50828;53.756;21.140;2022-07-22T18:16:35;5.90;;;5.00;;
64459;SDS011;50828;53.756;21.140;2022-07-22T18:21:44;7.00;;;5.10;;
64459;SDS011;50828;53.756;21.140;2022-07-22T18:26:53;6.30;;;5.10;;
64459;SDS011;50828;53.756;21.140;2022-07-22T18:32:01;6.20;;;5.10;;
64459;SDS011;50828;53.756;21.140;2022-07-22T18:37:09;7.80;;;6.00;;
64459;SDS011;50828;53.756;21.140;2022-07-22T18:42:18;6.30;;;5.60;;
64459;SDS011;50828;53.756;21.140;2022-07-22T18:47:27;8.10;;;5.60;;
64459;SDS011;50828;53.756;21.140;2022-07-22T18:52:36;6.80;;;5.70;;
64459;SDS011;50828;53.756;21.140;2022-07-22T18:57:45;9.10;;;5.60;;
64459;SDS011;50828;53.756;21.140;2022-07-22T19:02:54;9.70;;;5.20;;
64459;SDS011;50828;53.756;21.140;2022-07-22T19:08:02;9.90;;;5.20;;
64459;SDS011;50828;53.756;21.140;2022-07-22T19:13:10;8.30;;;5.90;;
64459;SDS011;50828;53.756;21.140;2022-07-22T19:18:18;7.10;;;5.60;;
64459;SDS011;50828;53.756;21.140;2022-07-22T19:23:28;8.40;;;5.80;;
64459;SDS011;50828;53.756;21.140;2022-07-22T19:28:36;8.20;;;5.70;;
64459;SDS011;50828;53.756;21.140;2022-07-22T19:33:45;6.10;;;5.50;;
64459;SDS011;50828;53.756;21.140;2022-07-22T19:38:54;9.10;;;6.00;;
64459;SDS011;50828;53.756;21.140;2022-07-22T19:44:04;10.40;;;6.70;;
64459;SDS011;50828;53.756;21.140;2022-07-22T19:49:12;8.80;;;7.80;;
64459;SDS011;50828;53.756;21.140;2022-07-22T19:54:21;8.50;;;7.00;;
64459;SDS011;50828;53.756;21.140;2022-07-22T19:59:29;9.60;;;6.90;;
64459;SDS011;50828;53.756;21.140;2022-07-22T20:04:37;6.40;;;5.70;;
64459;SDS011;50828;53.756;21.140;2022-07-22T20:09:46;9.10;;;6.10;;
64459;SDS011;50828;53.756;21.140;2022-07-22T20:14:55;7.60;;;6.20;;
64459;SDS011;50828;53.756;21.140;2022-07-22T20:20:13;7.50;;;6.60;;
64459;SDS011;50828;53.756;21.140;2022-07-22T20:25:21;9.60;;;6.60;;
64459;SDS011;50828;53.756;21.140;2022-07-22T20:30:34;7.60;;;5.80;;
64459;SDS011;50828;53.756;21.140;2022-07-22T20:35:42;7.00;;;6.00;;
64459;SDS011;50828;53.756;21.140;2022-07-22T20:40:51;7.20;;;5.60;;
64459;SDS011;50828;53.756;21.140;2022-07-22T20:45:59;8.70;;;6.70;;
64459;SDS011;50828;53.756;21.140;2022-07-22T20:51:09;8.30;;;7.10;;
64459;SDS011;50828;53.756;21.140;2022-07-22T20:56:17;10.20;;;6.30;;
64459;SDS011;50828;53.756;21.140;2022-07-22T21:01:26;8.00;;;6.60;;
64459;SDS011;50828;53.756;21.140;2022-07-22T21:06:34;7.40;;;6.50;;
64459;SDS011;50828;53.756;21.140;2022-07-22T21:11:42;12.40;;;7.10;;
64459;SDS011;50828;53.756;21.140;2022-07-22T21:16:52;8.60;;;6.90;;
64459;SDS011;50828;53.756;21.140;2022-07-22T21:22:00;10.20;;;7.70;;
64459;SDS011;50828;53.756;21.140;2022-07-22T21:27:09;8.80;;;7.60;;
64459;SDS011;50828;53.756;21.140;2022-07-22T21:32:18;10.00;;;7.50;;
64459;SDS011;50828;53.756;21.140;2022-07-22T21:37:26;10.80;;;7.60;;
64459;SDS011;50828;53.756;21.140;2022-07-22T21:42:34;11.40;;;7.60;;
64459;SDS011;50828;53.756;21.140;2022-07-22T21:47:44;8.90;;;7.50;;
64459;SDS011;50828;53.756;21.140;2022-07-22T21:52:53;11.20;;;7.50;;
64459;SDS011;50828;53.756;21.140;2022-07-22T21:58:01;11.90;;;9.20;;
64459;SDS011;50828;53.756;21.140;2022-07-22T22:03:09;10.90;;;8.30;;
64459;SDS011;50828;53.756;21.140;2022-07-22T22:08:18;9.60;;;8.60;;
64459;SDS011;50828;53.756;21.140;2022-07-22T22:13:26;11.00;;;8.70;;
64459;SDS011;50828;53.756;21.140;2022-07-22T22:18:35;11.90;;;9.20;;
64459;SDS011;50828;53.756;21.140;2022-07-22T22:23:45;11.80;;;8.70;;
64459;SDS011;50828;53.756;21.140;2022-07-22T22:28:53;11.60;;;8.40;;
64459;SDS011;50828;53.756;21.140;2022-07-22T22:34:02;9.60;;;8.50;;
64459;SDS011;50828;53.756;21.140;2022-07-22T22:39:10;9.00;;;8.00;;
64459;SDS011;50828;53.756;21.140;2022-07-22T22:44:18;8.70;;;7.50;;
64459;SDS011;50828;53.756;21.140;2022-07-22T22:49:27;9.80;;;8.00;;
64459;SDS011;50828;53.756;21.140;2022-07-22T22:54:35;8.80;;;7.70;;
64459;SDS011;50828;53.756;21.140;2022-07-22T22:59:43;8.50;;;7.40;;
64459;SDS011;50828;53.756;21.140;2022-07-22T23:04:50;11.10;;;7.80;;
64459;SDS011;50828;53.756;21.140;2022-07-22T23:09:58;9.00;;;7.60;;
64459;SDS011;50828;53.756;21.140;2022-07-22T23:15:07;8.10;;;6.80;;
64459;SDS011;50828;53.756;21.140;2022-07-22T23:20:15;11.20;;;7.70;;
64459;SDS011;50828;53.756;21.140;2022-07-22T23:25:24;10.50;;;7.50;;
64459;SDS011;50828;53.756;21.140;2022-07-22T23:30:54;9.80;;;7.90;;
64459;SDS011;50828;53.756;21.140;2022-07-22T23:36:04;9.90;;;8.50;;
64459;SDS011;50828;53.756;21.140;2022-07-22T23:41:13;9.30;;;8.40;;
64459;SDS011;50828;53.756;21.140;2022-07-22T23:46:22;8.50;;;7.60;;
64459;SDS011;50828;53.756;21.140;2022-07-22T23:51:30;9.70;;;8.70;;
64459;SDS011;50828;53.756;21.140;2022-07-22T23:56:39;9.00;;;8.00;;
